sensor_id;sensor_type;location;lat;lon;timestamp;P1;durP1;ratioP1;P2;durP2;ratioP2
73733;SDS011;62039;50.000;9.064;2023-08-20T00:01:09;3.90;;;3.60;;
73733;SDS011;62039;50.000;9.064;2023-08-20T00:03:39;4.10;;;3.70;;
73733;SDS011;62039;50.000;9.064;2023-08-20T00:06:07;3.80;;;3.50;;
73733;SDS011;62039;50.000;9.064;2023-08-20T00:08:35;3.77;;;3.47;;
73733;SDS011;62039;50.000;9.064;2023-08-20T00:11:04;4.83;;;3.63;;
73733;SDS011;62039;50.000;9.064;2023-08-20T00:13:31;3.60;;;3.30;;
73733;SDS011;62039;50.000;9.064;2023-08-20T00:15:58;4.23;;;3.87;;
73733;SDS011;62039;50.000;9.064;2023-08-20T00:18:26;4.57;;;4.03;;
73733;SDS011;62039;50.000;9.064;2023-08-20T00:20:53;4.60;;;3.93;;
73733;SDS011;62039;50.000;9.064;2023-08-20T00:23:21;4.27;;;3.57;;
73733;SDS011;62039;50.000;9.064;2023-08-20T00:25:49;4.30;;;3.90;;
73733;SDS011;62039;50.000;9.064;2023-08-20T00:28:19;4.23;;;3.67;;
73733;SDS011;62039;50.000;9.064;2023-08-20T00:30:46;4.00;;;3.70;;
73733;SDS011;62039;50.000;9.064;2023-08-20T00:33:13;4.20;;;3.90;;
73733;SDS011;62039;50.000;9.064;2023-08-20T00:35:40;4.40;;;3.80;;
73733;SDS011;62039;50.000;9.064;2023-08-20T00:38:07;3.93;;;3.60;;
73733;SDS011;62039;50.000;9.064;2023-08-20T00:40:34;3.73;;;3.37;;
73733;SDS011;62039;50.000;9.064;2023-08-20T00:43:01;4.20;;;3.90;;
73733;SDS011;62039;50.000;9.064;2023-08-20T00:45:31;4.20;;;3.80;;
73733;SDS011;62039;50.000;9.064;2023-08-20T00:47:58;3.93;;;3.57;;
73733;SDS011;62039;50.000;9.064;2023-08-20T00:50:26;3.90;;;3.60;;
73733;SDS011;62039;50.000;9.064;2023-08-20T00:52:53;4.10;;;3.80;;
73733;SDS011;62039;50.000;9.064;2023-08-20T00:55:20;6.00;;;4.03;;
73733;SDS011;62039;50.000;9.064;2023-08-20T00:57:47;5.70;;;4.03;;
73733;SDS011;62039;50.000;9.064;2023-08-20T01:00:14;4.73;;;3.77;;
73733;SDS011;62039;50.000;9.064;2023-08-20T01:02:47;5.83;;;4.00;;
73733;SDS011;62039;50.000;9.064;2023-08-20T01:05:14;4.17;;;3.77;;
73733;SDS011;62039;50.000;9.064;2023-08-20T01:07:43;4.30;;;3.90;;
73733;SDS011;62039;50.000;9.064;2023-08-20T01:10:19;3.97;;;3.63;;
73733;SDS011;62039;50.000;9.064;2023-08-20T01:12:51;3.87;;;3.40;;
73733;SDS011;62039;50.000;9.064;2023-08-20T01:15:19;4.33;;;3.93;;
73733;SDS011;62039;50.000;9.064;2023-08-20T01:17:49;4.73;;;4.23;;
73733;SDS011;62039;50.000;9.064;2023-08-20T01:20:16;4.40;;;4.00;;
73733;SDS011;62039;50.000;9.064;2023-08-20T01:22:49;5.53;;;3.43;;
73733;SDS011;62039;50.000;9.064;2023-08-20T01:25:41;4.27;;;3.90;;
73733;SDS011;62039;50.000;9.064;2023-08-20T01:28:23;5.07;;;4.03;;
73733;SDS011;62039;50.000;9.064;2023-08-20T01:30:52;5.50;;;3.87;;
73733;SDS011;62039;50.000;9.064;2023-08-20T01:33:20;4.30;;;3.90;;
73733;SDS011;62039;50.000;9.064;2023-08-20T01:35:47;4.40;;;4.00;;
73733;SDS011;62039;50.000;9.064;2023-08-20T01:38:14;5.67;;;4.10;;
73733;SDS011;62039;50.000;9.064;2023-08-20T01:40:41;3.83;;;3.60;;
73733;SDS011;62039;50.000;9.064;2023-08-20T01:43:08;3.97;;;3.67;;
73733;SDS011;62039;50.000;9.064;2023-08-20T01:45:38;4.50;;;4.10;;
73733;SDS011;62039;50.000;9.064;2023-08-20T01:48:06;4.20;;;3.87;;
73733;SDS011;62039;50.000;9.064;2023-08-20T01:50:33;3.87;;;3.43;;
73733;SDS011;62039;50.000;9.064;2023-08-20T01:53:01;4.80;;;3.90;;
73733;SDS011;62039;50.000;9.064;2023-08-20T01:55:28;4.10;;;3.80;;
73733;SDS011;62039;50.000;9.064;2023-08-20T01:57:57;3.60;;;3.30;;
73733;SDS011;62039;50.000;9.064;2023-08-20T02:00:25;5.60;;;4.00;;
73733;SDS011;62039;50.000;9.064;2023-08-20T02:02:54;4.53;;;4.00;;
73733;SDS011;62039;50.000;9.064;2023-08-20T02:05:21;4.17;;;3.77;;
73733;SDS011;62039;50.000;9.064;2023-08-20T02:07:49;4.00;;;3.57;;
73733;SDS011;62039;50.000;9.064;2023-08-20T02:10:16;4.40;;;4.00;;
73733;SDS011;62039;50.000;9.064;2023-08-20T02:12:43;5.27;;;4.00;;
73733;SDS011;62039;50.000;9.064;2023-08-20T02:15:10;4.43;;;4.03;;
73733;SDS011;62039;50.000;9.064;2023-08-20T02:17:37;4.00;;;3.60;;
73733;SDS011;62039;50.000;9.064;2023-08-20T02:20:07;3.80;;;3.43;;
73733;SDS011;62039;50.000;9.064;2023-08-20T02:22:35;4.00;;;3.70;;
73733;SDS011;62039;50.000;9.064;2023-08-20T02:25:02;4.07;;;3.70;;
73733;SDS011;62039;50.000;9.064;2023-08-20T02:27:29;4.57;;;3.97;;
73733;SDS011;62039;50.000;9.064;2023-08-20T02:29:56;7.83;;;3.90;;
73733;SDS011;62039;50.000;9.064;2023-08-20T02:32:23;3.90;;;3.53;;
73733;SDS011;62039;50.000;9.064;2023-08-20T02:34:50;3.90;;;3.60;;
73733;SDS011;62039;50.000;9.064;2023-08-20T02:37:21;4.50;;;4.00;;
73733;SDS011;62039;50.000;9.064;2023-08-20T02:39:48;4.47;;;4.07;;
73733;SDS011;62039;50.000;9.064;2023-08-20T02:42:15;4.53;;;4.13;;
73733;SDS011;62039;50.000;9.064;2023-08-20T02:44:42;4.40;;;4.00;;
73733;SDS011;62039;50.000;9.064;2023-08-20T02:47:08;4.77;;;4.13;;
73733;SDS011;62039;50.000;9.064;2023-08-20T02:49:35;6.27;;;3.93;;
73733;SDS011;62039;50.000;9.064;2023-08-20T02:52:03;4.20;;;3.80;;
73733;SDS011;62039;50.000;9.064;2023-08-20T02:54:33;4.03;;;3.70;;
73733;SDS011;62039;50.000;9.064;2023-08-20T02:57:00;4.37;;;4.03;;
73733;SDS011;62039;50.000;9.064;2023-08-20T02:59:27;4.17;;;3.87;;
73733;SDS011;62039;50.000;9.064;2023-08-20T03:01:53;4.63;;;4.17;;
73733;SDS011;62039;50.000;9.064;2023-08-20T03:04:21;4.10;;;3.67;;
73733;SDS011;62039;50.000;9.064;2023-08-20T03:06:48;4.40;;;4.00;;
73733;SDS011;62039;50.000;9.064;2023-08-20T03:09:15;4.10;;;3.70;;
73733;SDS011;62039;50.000;9.064;2023-08-20T03:11:44;6.00;;;4.30;;
73733;SDS011;62039;50.000;9.064;2023-08-20T03:14:11;4.30;;;3.90;;
73733;SDS011;62039;50.000;9.064;2023-08-20T03:16:38;4.97;;;4.47;;
73733;SDS011;62039;50.000;9.064;2023-08-20T03:19:05;6.63;;;3.90;;
73733;SDS011;62039;50.000;9.064;2023-08-20T03:21:32;4.93;;;4.03;;
73733;SDS011;62039;50.000;9.064;2023-08-20T03:23:59;4.33;;;3.93;;
73733;SDS011;62039;50.000;9.064;2023-08-20T03:26:26;5.13;;;4.00;;
73733;SDS011;62039;50.000;9.064;2023-08-20T03:28:56;4.70;;;4.23;;
73733;SDS011;62039;50.000;9.064;2023-08-20T03:31:23;4.00;;;3.70;;
73733;SDS011;62039;50.000;9.064;2023-08-20T03:33:50;4.73;;;3.80;;
73733;SDS011;62039;50.000;9.064;2023-08-20T03:36:17;3.93;;;3.50;;
73733;SDS011;62039;50.000;9.064;2023-08-20T03:38:44;4.37;;;3.97;;
73733;SDS011;62039;50.000;9.064;2023-08-20T03:41:11;4.40;;;4.00;;
73733;SDS011;62039;50.000;9.064;2023-08-20T03:43:38;4.47;;;3.83;;
73733;SDS011;62039;50.000;9.064;2023-08-20T03:46:07;4.63;;;4.23;;
73733;SDS011;62039;50.000;9.064;2023-08-20T03:48:34;4.03;;;3.73;;
73733;SDS011;62039;50.000;9.064;2023-08-20T03:51:01;3.97;;;3.67;;
73733;SDS011;62039;50.000;9.064;2023-08-20T03:53:28;3.73;;;3.37;;
73733;SDS011;62039;50.000;9.064;2023-08-20T03:55:55;3.50;;;3.20;;
73733;SDS011;62039;50.000;9.064;2023-08-20T03:58:22;4.10;;;3.70;;
73733;SDS011;62039;50.000;9.064;2023-08-20T04:00:49;4.07;;;3.60;;
73733;SDS011;62039;50.000;9.064;2023-08-20T04:03:19;3.83;;;3.53;;
73733;SDS011;62039;50.000;9.064;2023-08-20T04:05:46;4.40;;;4.00;;
73733;SDS011;62039;50.000;9.064;2023-08-20T04:08:13;4.30;;;3.90;;
73733;SDS011;62039;50.000;9.064;2023-08-20T04:10:42;4.07;;;3.77;;
73733;SDS011;62039;50.000;9.064;2023-08-20T04:13:09;4.60;;;4.10;;
73733;SDS011;62039;50.000;9.064;2023-08-20T04:15:36;4.53;;;4.13;;
73733;SDS011;62039;50.000;9.064;2023-08-20T04:18:03;6.17;;;4.13;;
73733;SDS011;62039;50.000;9.064;2023-08-20T04:20:34;4.27;;;3.87;;
73733;SDS011;62039;50.000;9.064;2023-08-20T04:23:01;4.70;;;4.30;;
73733;SDS011;62039;50.000;9.064;2023-08-20T04:25:28;6.50;;;4.67;;
73733;SDS011;62039;50.000;9.064;2023-08-20T04:27:55;4.53;;;4.13;;
73733;SDS011;62039;50.000;9.064;2023-08-20T04:30:22;4.90;;;4.37;;
73733;SDS011;62039;50.000;9.064;2023-08-20T04:32:49;4.83;;;4.43;;
73733;SDS011;62039;50.000;9.064;2023-08-20T04:35:16;4.57;;;4.17;;
73733;SDS011;62039;50.000;9.064;2023-08-20T04:37:45;4.40;;;4.00;;
73733;SDS011;62039;50.000;9.064;2023-08-20T04:40:12;4.40;;;4.00;;
73733;SDS011;62039;50.000;9.064;2023-08-20T04:42:42;5.00;;;3.87;;
73733;SDS011;62039;50.000;9.064;2023-08-20T04:45:09;4.20;;;3.90;;
73733;SDS011;62039;50.000;9.064;2023-08-20T04:47:36;4.40;;;4.00;;
73733;SDS011;62039;50.000;9.064;2023-08-20T04:50:04;4.83;;;4.20;;
73733;SDS011;62039;50.000;9.064;2023-08-20T04:52:31;5.90;;;3.80;;
73733;SDS011;62039;50.000;9.064;2023-08-20T04:55:01;4.33;;;3.97;;
73733;SDS011;62039;50.000;9.064;2023-08-20T04:57:29;4.03;;;3.70;;
73733;SDS011;62039;50.000;9.064;2023-08-20T04:59:56;4.47;;;4.00;;
73733;SDS011;62039;50.000;9.064;2023-08-20T05:02:23;4.20;;;3.90;;
73733;SDS011;62039;50.000;9.064;2023-08-20T05:04:50;4.77;;;4.03;;
73733;SDS011;62039;50.000;9.064;2023-08-20T05:07:17;3.80;;;3.50;;
73733;SDS011;62039;50.000;9.064;2023-08-20T05:09:44;4.77;;;3.93;;
73733;SDS011;62039;50.000;9.064;2023-08-20T05:12:14;4.67;;;3.30;;
73733;SDS011;62039;50.000;9.064;2023-08-20T05:14:41;3.93;;;3.63;;
73733;SDS011;62039;50.000;9.064;2023-08-20T05:17:08;3.93;;;3.63;;
73733;SDS011;62039;50.000;9.064;2023-08-20T05:19:34;5.17;;;3.97;;
73733;SDS011;62039;50.000;9.064;2023-08-20T05:22:01;5.47;;;4.20;;
73733;SDS011;62039;50.000;9.064;2023-08-20T05:24:28;4.83;;;3.87;;
73733;SDS011;62039;50.000;9.064;2023-08-20T05:27:05;4.77;;;4.37;;
73733;SDS011;62039;50.000;9.064;2023-08-20T05:29:36;6.07;;;4.33;;
73733;SDS011;62039;50.000;9.064;2023-08-20T05:32:03;4.43;;;4.13;;
73733;SDS011;62039;50.000;9.064;2023-08-20T05:34:31;4.83;;;4.43;;
73733;SDS011;62039;50.000;9.064;2023-08-20T05:36:58;4.83;;;4.43;;
73733;SDS011;62039;50.000;9.064;2023-08-20T05:39:25;4.90;;;4.50;;
73733;SDS011;62039;50.000;9.064;2023-08-20T05:41:52;4.90;;;4.40;;
73733;SDS011;62039;50.000;9.064;2023-08-20T05:44:19;4.63;;;4.23;;
73733;SDS011;62039;50.000;9.064;2023-08-20T05:46:49;4.90;;;4.40;;
73733;SDS011;62039;50.000;9.064;2023-08-20T05:49:16;4.83;;;4.43;;
73733;SDS011;62039;50.000;9.064;2023-08-20T05:51:43;5.17;;;4.67;;
73733;SDS011;62039;50.000;9.064;2023-08-20T05:54:10;5.60;;;4.97;;
73733;SDS011;62039;50.000;9.064;2023-08-20T05:56:37;5.27;;;4.80;;
73733;SDS011;62039;50.000;9.064;2023-08-20T05:59:04;5.20;;;4.80;;
73733;SDS011;62039;50.000;9.064;2023-08-20T06:01:31;4.80;;;4.50;;
73733;SDS011;62039;50.000;9.064;2023-08-20T06:04:01;4.50;;;4.20;;
73733;SDS011;62039;50.000;9.064;2023-08-20T06:06:28;4.70;;;4.30;;
73733;SDS011;62039;50.000;9.064;2023-08-20T06:08:55;5.07;;;4.67;;
73733;SDS011;62039;50.000;9.064;2023-08-20T06:11:34;5.33;;;4.90;;
73733;SDS011;62039;50.000;9.064;2023-08-20T06:14:01;5.20;;;4.63;;
73733;SDS011;62039;50.000;9.064;2023-08-20T06:16:29;6.13;;;5.00;;
73733;SDS011;62039;50.000;9.064;2023-08-20T06:18:57;5.07;;;4.70;;
73733;SDS011;62039;50.000;9.064;2023-08-20T06:21:28;4.67;;;4.27;;
73733;SDS011;62039;50.000;9.064;2023-08-20T06:23:55;4.33;;;4.03;;
73733;SDS011;62039;50.000;9.064;2023-08-20T06:26:22;4.33;;;4.03;;
73733;SDS011;62039;50.000;9.064;2023-08-20T06:28:49;5.03;;;4.50;;
73733;SDS011;62039;50.000;9.064;2023-08-20T06:31:16;5.30;;;4.67;;
73733;SDS011;62039;50.000;9.064;2023-08-20T06:33:43;5.00;;;4.60;;
73733;SDS011;62039;50.000;9.064;2023-08-20T06:36:10;4.90;;;4.47;;
73733;SDS011;62039;50.000;9.064;2023-08-20T06:38:39;4.43;;;4.03;;
73733;SDS011;62039;50.000;9.064;2023-08-20T06:41:06;4.90;;;4.50;;
73733;SDS011;62039;50.000;9.064;2023-08-20T06:43:33;4.33;;;4.03;;
73733;SDS011;62039;50.000;9.064;2023-08-20T06:46:00;4.53;;;4.23;;
73733;SDS011;62039;50.000;9.064;2023-08-20T06:48:27;3.90;;;3.60;;
73733;SDS011;62039;50.000;9.064;2023-08-20T06:50:54;4.17;;;3.80;;
73733;SDS011;62039;50.000;9.064;2023-08-20T06:53:21;4.50;;;4.10;;
73733;SDS011;62039;50.000;9.064;2023-08-20T06:55:51;5.30;;;4.30;;
73733;SDS011;62039;50.000;9.064;2023-08-20T06:58:18;4.00;;;3.70;;
73733;SDS011;62039;50.000;9.064;2023-08-20T07:00:45;4.20;;;3.83;;
73733;SDS011;62039;50.000;9.064;2023-08-20T07:03:12;3.83;;;3.43;;
73733;SDS011;62039;50.000;9.064;2023-08-20T07:05:39;4.27;;;3.87;;
73733;SDS011;62039;50.000;9.064;2023-08-20T07:08:06;3.97;;;3.63;;
73733;SDS011;62039;50.000;9.064;2023-08-20T07:10:33;4.67;;;4.20;;
73733;SDS011;62039;50.000;9.064;2023-08-20T07:13:02;3.80;;;3.60;;
73733;SDS011;62039;50.000;9.064;2023-08-20T07:15:29;4.07;;;3.77;;
73733;SDS011;62039;50.000;9.064;2023-08-20T07:17:56;4.10;;;3.70;;
73733;SDS011;62039;50.000;9.064;2023-08-20T07:20:23;4.30;;;3.40;;
73733;SDS011;62039;50.000;9.064;2023-08-20T07:22:50;4.10;;;3.80;;
73733;SDS011;62039;50.000;9.064;2023-08-20T07:25:17;4.17;;;3.80;;
73733;SDS011;62039;50.000;9.064;2023-08-20T07:27:44;3.90;;;3.60;;
73733;SDS011;62039;50.000;9.064;2023-08-20T07:30:14;3.70;;;3.40;;
73733;SDS011;62039;50.000;9.064;2023-08-20T07:32:41;3.93;;;3.60;;
73733;SDS011;62039;50.000;9.064;2023-08-20T07:35:08;3.97;;;3.67;;
73733;SDS011;62039;50.000;9.064;2023-08-20T07:37:37;3.80;;;3.50;;
73733;SDS011;62039;50.000;9.064;2023-08-20T07:40:05;3.73;;;3.43;;
73733;SDS011;62039;50.000;9.064;2023-08-20T07:42:32;3.70;;;3.40;;
73733;SDS011;62039;50.000;9.064;2023-08-20T07:44:59;3.40;;;3.20;;
73733;SDS011;62039;50.000;9.064;2023-08-20T07:47:29;3.83;;;3.53;;
73733;SDS011;62039;50.000;9.064;2023-08-20T07:49:56;3.60;;;3.37;;
73733;SDS011;62039;50.000;9.064;2023-08-20T07:52:23;3.63;;;3.30;;
73733;SDS011;62039;50.000;9.064;2023-08-20T07:54:50;4.03;;;3.47;;
73733;SDS011;62039;50.000;9.064;2023-08-20T07:57:17;4.20;;;3.90;;
73733;SDS011;62039;50.000;9.064;2023-08-20T07:59:44;4.43;;;4.00;;
73733;SDS011;62039;50.000;9.064;2023-08-20T08:02:11;4.27;;;3.97;;
73733;SDS011;62039;50.000;9.064;2023-08-20T08:04:41;4.63;;;4.07;;
73733;SDS011;62039;50.000;9.064;2023-08-20T08:07:11;4.00;;;3.70;;
73733;SDS011;62039;50.000;9.064;2023-08-20T08:09:38;4.43;;;3.40;;
73733;SDS011;62039;50.000;9.064;2023-08-20T08:12:05;3.60;;;3.20;;
73733;SDS011;62039;50.000;9.064;2023-08-20T08:14:32;3.83;;;3.53;;
73733;SDS011;62039;50.000;9.064;2023-08-20T08:17:00;3.90;;;3.60;;
73733;SDS011;62039;50.000;9.064;2023-08-20T08:19:26;4.00;;;3.53;;
73733;SDS011;62039;50.000;9.064;2023-08-20T08:21:56;3.67;;;3.37;;
73733;SDS011;62039;50.000;9.064;2023-08-20T08:24:23;3.67;;;3.37;;
73733;SDS011;62039;50.000;9.064;2023-08-20T08:26:50;3.83;;;3.53;;
73733;SDS011;62039;50.000;9.064;2023-08-20T08:29:17;3.53;;;3.23;;
73733;SDS011;62039;50.000;9.064;2023-08-20T08:31:44;3.90;;;3.60;;
73733;SDS011;62039;50.000;9.064;2023-08-20T08:34:11;3.20;;;2.90;;
73733;SDS011;62039;50.000;9.064;2023-08-20T08:36:38;3.20;;;2.93;;
73733;SDS011;62039;50.000;9.064;2023-08-20T08:39:07;2.93;;;2.73;;
73733;SDS011;62039;50.000;9.064;2023-08-20T08:41:35;3.17;;;2.70;;
73733;SDS011;62039;50.000;9.064;2023-08-20T08:44:05;3.20;;;3.00;;
73733;SDS011;62039;50.000;9.064;2023-08-20T08:46:35;2.97;;;2.77;;
73733;SDS011;62039;50.000;9.064;2023-08-20T08:49:02;3.43;;;3.13;;
73733;SDS011;62039;50.000;9.064;2023-08-20T08:51:30;2.87;;;2.60;;
73733;SDS011;62039;50.000;9.064;2023-08-20T08:53:58;3.03;;;2.83;;
73733;SDS011;62039;50.000;9.064;2023-08-20T08:56:29;3.73;;;3.13;;
73733;SDS011;62039;50.000;9.064;2023-08-20T08:58:56;3.40;;;2.73;;
73733;SDS011;62039;50.000;9.064;2023-08-20T09:01:23;2.67;;;2.47;;
73733;SDS011;62039;50.000;9.064;2023-08-20T09:03:50;3.10;;;2.90;;
73733;SDS011;62039;50.000;9.064;2023-08-20T09:06:17;3.80;;;2.80;;
73733;SDS011;62039;50.000;9.064;2023-08-20T09:08:44;3.10;;;2.90;;
73733;SDS011;62039;50.000;9.064;2023-08-20T09:11:11;3.63;;;3.33;;
73733;SDS011;62039;50.000;9.064;2023-08-20T09:13:41;3.27;;;3.03;;
73733;SDS011;62039;50.000;9.064;2023-08-20T09:16:09;2.97;;;2.77;;
73733;SDS011;62039;50.000;9.064;2023-08-20T09:18:37;3.07;;;2.77;;
73733;SDS011;62039;50.000;9.064;2023-08-20T09:21:06;3.43;;;3.13;;
73733;SDS011;62039;50.000;9.064;2023-08-20T09:23:33;3.47;;;3.17;;
73733;SDS011;62039;50.000;9.064;2023-08-20T09:26:01;3.33;;;3.10;;
73733;SDS011;62039;50.000;9.064;2023-08-20T09:28:29;3.40;;;3.10;;
73733;SDS011;62039;50.000;9.064;2023-08-20T09:31:09;3.10;;;2.72;;
73733;SDS011;62039;50.000;9.064;2023-08-20T09:33:37;3.67;;;3.40;;
73733;SDS011;62039;50.000;9.064;2023-08-20T09:36:15;3.45;;;3.20;;
73733;SDS011;62039;50.000;9.064;2023-08-20T09:38:42;3.07;;;2.87;;
73733;SDS011;62039;50.000;9.064;2023-08-20T09:41:09;2.83;;;2.63;;
73733;SDS011;62039;50.000;9.064;2023-08-20T09:43:38;3.57;;;3.27;;
73733;SDS011;62039;50.000;9.064;2023-08-20T09:46:05;3.55;;;3.28;;
73733;SDS011;62039;50.000;9.064;2023-08-20T09:48:37;3.03;;;2.83;;
73733;SDS011;62039;50.000;9.064;2023-08-20T09:51:10;3.58;;;3.28;;
73733;SDS011;62039;50.000;9.064;2023-08-20T09:53:39;3.10;;;2.90;;
73733;SDS011;62039;50.000;9.064;2023-08-20T09:56:15;3.17;;;2.95;;
73733;SDS011;62039;50.000;9.064;2023-08-20T09:58:48;3.28;;;3.08;;
73733;SDS011;62039;50.000;9.064;2023-08-20T10:01:19;3.47;;;3.20;;
73733;SDS011;62039;50.000;9.064;2023-08-20T10:03:46;3.08;;;2.88;;
73733;SDS011;62039;50.000;9.064;2023-08-20T10:06:13;3.63;;;3.33;;
73733;SDS011;62039;50.000;9.064;2023-08-20T10:08:40;4.07;;;3.38;;
73733;SDS011;62039;50.000;9.064;2023-08-20T10:11:08;3.65;;;3.35;;
73733;SDS011;62039;50.000;9.064;2023-08-20T10:13:35;3.55;;;3.25;;
73733;SDS011;62039;50.000;9.064;2023-08-20T10:16:03;2.88;;;2.63;;
73733;SDS011;62039;50.000;9.064;2023-08-20T10:18:33;3.30;;;3.00;;
73733;SDS011;62039;50.000;9.064;2023-08-20T10:21:01;2.88;;;2.67;;
73733;SDS011;62039;50.000;9.064;2023-08-20T10:23:30;3.15;;;2.92;;
73733;SDS011;62039;50.000;9.064;2023-08-20T10:26:03;3.38;;;3.08;;
73733;SDS011;62039;50.000;9.064;2023-08-20T10:28:33;3.40;;;3.20;;
73733;SDS011;62039;50.000;9.064;2023-08-20T10:31:04;4.05;;;3.17;;
73733;SDS011;62039;50.000;9.064;2023-08-20T10:33:37;3.20;;;2.65;;
73733;SDS011;62039;50.000;9.064;2023-08-20T10:36:08;2.95;;;2.75;;
73733;SDS011;62039;50.000;9.064;2023-08-20T10:38:36;3.05;;;2.85;;
73733;SDS011;62039;50.000;9.064;2023-08-20T10:41:06;2.65;;;2.45;;
73733;SDS011;62039;50.000;9.064;2023-08-20T10:43:33;2.83;;;2.63;;
73733;SDS011;62039;50.000;9.064;2023-08-20T10:46:08;3.58;;;2.90;;
73733;SDS011;62039;50.000;9.064;2023-08-20T10:48:43;2.90;;;2.60;;
73733;SDS011;62039;50.000;9.064;2023-08-20T10:51:14;2.95;;;2.70;;
73733;SDS011;62039;50.000;9.064;2023-08-20T10:53:42;2.85;;;2.60;;
73733;SDS011;62039;50.000;9.064;2023-08-20T10:56:12;3.17;;;2.83;;
73733;SDS011;62039;50.000;9.064;2023-08-20T10:58:44;3.60;;;3.17;;
73733;SDS011;62039;50.000;9.064;2023-08-20T11:01:12;3.53;;;3.22;;
73733;SDS011;62039;50.000;9.064;2023-08-20T11:03:40;3.10;;;2.90;;
73733;SDS011;62039;50.000;9.064;2023-08-20T11:06:10;4.78;;;3.47;;
73733;SDS011;62039;50.000;9.064;2023-08-20T11:08:37;2.83;;;2.63;;
73733;SDS011;62039;50.000;9.064;2023-08-20T11:11:05;2.80;;;2.60;;
73733;SDS011;62039;50.000;9.064;2023-08-20T11:13:33;3.33;;;3.00;;
73733;SDS011;62039;50.000;9.064;2023-08-20T11:16:02;2.80;;;2.60;;
73733;SDS011;62039;50.000;9.064;2023-08-20T11:18:30;2.70;;;2.50;;
73733;SDS011;62039;50.000;9.064;2023-08-20T11:21:00;2.90;;;2.70;;
73733;SDS011;62039;50.000;9.064;2023-08-20T11:23:27;3.17;;;2.67;;
73733;SDS011;62039;50.000;9.064;2023-08-20T11:25:55;2.45;;;2.25;;
73733;SDS011;62039;50.000;9.064;2023-08-20T11:28:22;2.58;;;2.38;;
73733;SDS011;62039;50.000;9.064;2023-08-20T11:30:54;2.67;;;2.47;;
73733;SDS011;62039;50.000;9.064;2023-08-20T11:33:22;3.67;;;2.45;;
73733;SDS011;62039;50.000;9.064;2023-08-20T11:35:49;2.58;;;2.38;;
73733;SDS011;62039;50.000;9.064;2023-08-20T11:38:20;2.70;;;2.38;;
73733;SDS011;62039;50.000;9.064;2023-08-20T11:40:49;2.60;;;2.40;;
73733;SDS011;62039;50.000;9.064;2023-08-20T11:43:16;2.45;;;2.25;;
73733;SDS011;62039;50.000;9.064;2023-08-20T11:45:47;2.45;;;2.20;;
73733;SDS011;62039;50.000;9.064;2023-08-20T11:48:14;2.30;;;2.10;;
73733;SDS011;62039;50.000;9.064;2023-08-20T11:50:42;2.10;;;2.00;;
73733;SDS011;62039;50.000;9.064;2023-08-20T11:53:09;2.40;;;2.20;;
73733;SDS011;62039;50.000;9.064;2023-08-20T11:55:40;2.50;;;2.30;;
73733;SDS011;62039;50.000;9.064;2023-08-20T11:58:11;2.45;;;2.17;;
73733;SDS011;62039;50.000;9.064;2023-08-20T12:00:38;2.33;;;1.90;;
73733;SDS011;62039;50.000;9.064;2023-08-20T12:03:06;2.80;;;2.47;;
73733;SDS011;62039;50.000;9.064;2023-08-20T12:05:34;2.40;;;2.20;;
73733;SDS011;62039;50.000;9.064;2023-08-20T12:08:01;3.55;;;2.80;;
73733;SDS011;62039;50.000;9.064;2023-08-20T12:10:30;3.33;;;3.03;;
73733;SDS011;62039;50.000;9.064;2023-08-20T12:13:01;3.40;;;3.10;;
73733;SDS011;62039;50.000;9.064;2023-08-20T12:15:28;2.72;;;2.47;;
73733;SDS011;62039;50.000;9.064;2023-08-20T12:17:56;2.58;;;2.38;;
73733;SDS011;62039;50.000;9.064;2023-08-20T12:20:26;3.10;;;2.45;;
73733;SDS011;62039;50.000;9.064;2023-08-20T12:22:54;2.83;;;2.58;;
73733;SDS011;62039;50.000;9.064;2023-08-20T12:25:21;3.67;;;3.38;;
73733;SDS011;62039;50.000;9.064;2023-08-20T12:27:48;3.17;;;2.88;;
73733;SDS011;62039;50.000;9.064;2023-08-20T12:30:18;2.70;;;2.50;;
73733;SDS011;62039;50.000;9.064;2023-08-20T12:32:45;2.63;;;2.42;;
73733;SDS011;62039;50.000;9.064;2023-08-20T12:35:12;2.35;;;2.15;;
73733;SDS011;62039;50.000;9.064;2023-08-20T12:37:39;2.45;;;2.25;;
73733;SDS011;62039;50.000;9.064;2023-08-20T12:40:06;2.35;;;2.15;;
73733;SDS011;62039;50.000;9.064;2023-08-20T12:42:34;3.40;;;2.55;;
73733;SDS011;62039;50.000;9.064;2023-08-20T12:45:01;2.50;;;2.30;;
73733;SDS011;62039;50.000;9.064;2023-08-20T12:47:30;3.55;;;2.30;;
73733;SDS011;62039;50.000;9.064;2023-08-20T12:49:57;2.40;;;2.28;;
73733;SDS011;62039;50.000;9.064;2023-08-20T12:52:24;2.45;;;2.25;;
73733;SDS011;62039;50.000;9.064;2023-08-20T12:54:51;2.08;;;1.92;;
73733;SDS011;62039;50.000;9.064;2023-08-20T12:57:18;2.50;;;2.30;;
73733;SDS011;62039;50.000;9.064;2023-08-20T12:59:45;2.17;;;1.95;;
73733;SDS011;62039;50.000;9.064;2023-08-20T13:02:12;2.35;;;2.13;;
73733;SDS011;62039;50.000;9.064;2023-08-20T13:04:42;2.40;;;2.20;;
73733;SDS011;62039;50.000;9.064;2023-08-20T13:07:10;2.13;;;2.03;;
73733;SDS011;62039;50.000;9.064;2023-08-20T13:09:38;2.17;;;1.95;;
73733;SDS011;62039;50.000;9.064;2023-08-20T13:12:06;2.42;;;2.22;;
73733;SDS011;62039;50.000;9.064;2023-08-20T13:14:36;2.55;;;2.35;;
73733;SDS011;62039;50.000;9.064;2023-08-20T13:17:04;2.58;;;2.38;;
73733;SDS011;62039;50.000;9.064;2023-08-20T13:19:32;2.45;;;2.25;;
73733;SDS011;62039;50.000;9.064;2023-08-20T13:22:01;2.08;;;1.98;;
73733;SDS011;62039;50.000;9.064;2023-08-20T13:24:28;2.35;;;2.15;;
73733;SDS011;62039;50.000;9.064;2023-08-20T13:26:55;2.08;;;1.88;;
73733;SDS011;62039;50.000;9.064;2023-08-20T13:29:22;2.78;;;1.83;;
73733;SDS011;62039;50.000;9.064;2023-08-20T13:31:49;2.28;;;2.08;;
73733;SDS011;62039;50.000;9.064;2023-08-20T13:34:16;2.40;;;2.13;;
73733;SDS011;62039;50.000;9.064;2023-08-20T13:36:43;2.30;;;2.10;;
73733;SDS011;62039;50.000;9.064;2023-08-20T13:39:12;1.90;;;1.80;;
73733;SDS011;62039;50.000;9.064;2023-08-20T13:41:40;3.00;;;2.28;;
73733;SDS011;62039;50.000;9.064;2023-08-20T13:44:07;2.38;;;2.17;;
73733;SDS011;62039;50.000;9.064;2023-08-20T13:46:34;2.40;;;2.20;;
73733;SDS011;62039;50.000;9.064;2023-08-20T13:49:02;2.10;;;2.00;;
73733;SDS011;62039;50.000;9.064;2023-08-20T13:51:29;2.10;;;1.90;;
73733;SDS011;62039;50.000;9.064;2023-08-20T13:53:57;3.25;;;2.08;;
73733;SDS011;62039;50.000;9.064;2023-08-20T13:56:26;2.33;;;2.10;;
73733;SDS011;62039;50.000;9.064;2023-08-20T13:58:53;2.53;;;2.30;;
73733;SDS011;62039;50.000;9.064;2023-08-20T14:01:20;2.50;;;2.30;;
73733;SDS011;62039;50.000;9.064;2023-08-20T14:03:47;2.00;;;1.80;;
73733;SDS011;62039;50.000;9.064;2023-08-20T14:06:14;2.30;;;2.10;;
73733;SDS011;62039;50.000;9.064;2023-08-20T14:08:41;2.38;;;2.13;;
73733;SDS011;62039;50.000;9.064;2023-08-20T14:11:08;3.00;;;2.13;;
73733;SDS011;62039;50.000;9.064;2023-08-20T14:13:38;1.80;;;1.70;;
73733;SDS011;62039;50.000;9.064;2023-08-20T14:16:05;2.38;;;2.17;;
73733;SDS011;62039;50.000;9.064;2023-08-20T14:18:32;2.40;;;2.10;;
73733;SDS011;62039;50.000;9.064;2023-08-20T14:20:59;2.25;;;2.05;;
73733;SDS011;62039;50.000;9.064;2023-08-20T14:23:26;2.13;;;1.92;;
73733;SDS011;62039;50.000;9.064;2023-08-20T14:25:53;2.08;;;1.88;;
73733;SDS011;62039;50.000;9.064;2023-08-20T14:28:20;2.10;;;2.00;;
73733;SDS011;62039;50.000;9.064;2023-08-20T14:30:49;2.22;;;2.03;;
73733;SDS011;62039;50.000;9.064;2023-08-20T14:33:17;1.95;;;1.85;;
73733;SDS011;62039;50.000;9.064;2023-08-20T14:35:44;2.15;;;1.85;;
73733;SDS011;62039;50.000;9.064;2023-08-20T14:38:11;2.20;;;2.10;;
73733;SDS011;62039;50.000;9.064;2023-08-20T14:40:38;2.83;;;1.92;;
73733;SDS011;62039;50.000;9.064;2023-08-20T14:43:06;4.13;;;1.90;;
73733;SDS011;62039;50.000;9.064;2023-08-20T14:45:33;1.92;;;1.73;;
73733;SDS011;62039;50.000;9.064;2023-08-20T14:48:02;2.38;;;1.80;;
73733;SDS011;62039;50.000;9.064;2023-08-20T14:50:30;2.00;;;1.88;;
73733;SDS011;62039;50.000;9.064;2023-08-20T14:52:57;2.17;;;2.00;;